Time;durP1;ratioP1;P1;durP2;ratioP2;P2;SDS_P1;SDS_P2;PMS_P1;PMS_P2;Temp;Humidity;BMP_temperature;BMP_pressure;BME280_temperature;BME280_humidity;BME280_pressure;Samples;Min_cycle;Max_cycle;Signal;HPM_P1;HPM_P2
2022/11/28 00:02:23;;;;;;;57.30;27.10;;;6.20;1.00;;;;;;5051249;28;20199;-76
2022/11/28 00:04:54;;;;;;;57.43;26.67;;;6.30;1.00;;;;;;5051335;28;20200;-77
2022/11/28 00:07:21;;;;;;;56.63;26.17;;;6.30;99.90;;;;;;5051082;28;20199;-76
2022/11/28 00:09:48;;;;;;;60.37;26.77;;;6.40;99.90;;;;;;5051302;28;20199;-77
2022/11/28 00:12:15;;;;;;;57.40;26.80;;;6.40;1.00;;;;;;5051338;28;20199;-75
2022/11/28 00:14:42;;;;;;;55.47;25.83;;;6.40;1.00;;;;;;5050979;28;20687;-75
2022/11/28 00:17:09;;;;;;;52.00;25.50;;;6.30;1.00;;;;;;5051231;28;20201;-75
2022/11/28 00:19:36;;;;;;;54.10;25.97;;;6.30;1.00;;;;;;5050860;28;20204;-75
2022/11/28 00:22:05;;;;;;;54.77;26.27;;;6.30;1.00;;;;;;5050936;28;20196;-76
2022/11/28 00:24:32;;;;;;;55.43;26.23;;;6.30;1.00;;;;;;5051092;28;20199;-76
2022/11/28 00:26:59;;;;;;;54.30;25.07;;;6.30;1.00;;;;;;5050701;28;20261;-76
2022/11/28 00:29:26;;;;;;;58.20;25.70;;;6.30;1.00;;;;;;5051012;28;20195;-76
2022/11/28 00:31:53;;;;;;;59.83;27.03;;;6.30;1.00;;;;;;5050516;28;20587;-76
2022/11/28 00:34:20;;;;;;;58.77;26.23;;;6.30;1.00;;;;;;5051033;27;20244;-75
2022/11/28 00:36:48;;;;;;;56.30;25.77;;;6.30;1.00;;;;;;5051151;28;20196;-75
2022/11/28 00:39:18;;;;;;;56.67;25.60;;;6.30;1.00;;;;;;5051062;28;20263;-75
2022/11/28 00:41:45;;;;;;;61.90;26.17;;;6.30;1.00;;;;;;5051032;28;20196;-75
2022/11/28 00:44:13;;;;;;;56.17;26.17;;;6.30;1.00;;;;;;5050568;28;20210;-75
2022/11/28 00:46:40;;;;;;;56.23;24.10;;;6.30;1.00;;;;;;5050737;28;20217;-76
2022/11/28 00:49:07;;;;;;;60.80;25.33;;;6.30;1.00;;;;;;5050696;28;20244;-75
2022/11/28 00:51:35;;;;;;;49.47;22.60;;;6.30;1.00;;;;;;5050435;28;20232;-76
2022/11/28 00:54:04;;;;;;;53.97;22.77;;;6.20;1.00;;;;;;5050953;28;20191;-75
2022/11/28 00:56:34;;;;;;;52.33;23.10;;;6.20;1.00;;;;;;5050685;28;20197;-75
2022/11/28 00:59:01;;;;;;;51.13;21.57;;;6.20;99.90;;;;;;5050305;28;20190;-75
2022/11/28 01:01:30;;;;;;;52.27;22.03;;;6.20;1.00;;;;;;5049951;28;20189;-76
2022/11/28 01:04:01;;;;;;;46.47;20.13;;;6.20;99.90;;;;;;5050472;28;20200;-75
2022/11/28 01:06:30;;;;;;;48.53;22.23;;;6.10;99.90;;;;;;5050133;28;20207;-75
2022/11/28 01:08:59;;;;;;;46.57;20.90;;;6.10;99.90;;;;;;5050417;28;20199;-75
2022/11/28 01:11:27;;;;;;;46.20;21.23;;;6.10;99.90;;;;;;5049411;28;20199;-75
2022/11/28 01:13:56;;;;;;;42.57;20.27;;;6.10;99.90;;;;;;5050320;28;20207;-76
2022/11/28 01:16:23;;;;;;;53.13;22.93;;;6.00;1.00;;;;;;5050564;28;20229;-75
2022/11/28 01:18:50;;;;;;;42.83;21.03;;;6.10;1.00;;;;;;5050354;28;20525;-75
2022/11/28 01:21:17;;;;;;;49.97;22.30;;;6.10;99.90;;;;;;5050518;28;20210;-76
2022/11/28 01:23:44;;;;;;;50.73;21.27;;;6.00;99.90;;;;;;5050550;28;20200;-75
2022/11/28 01:26:17;;;;;;;55.20;21.90;;;6.00;99.90;;;;;;5049838;27;20701;-75
2022/11/28 01:28:44;;;;;;;50.23;20.07;;;6.00;1.00;;;;;;5050018;28;20189;-77
2022/11/28 01:31:16;;;;;;;41.70;20.27;;;6.00;1.00;;;;;;5049855;28;20210;-76
2022/11/28 01:33:43;;;;;;;49.60;21.40;;;6.00;1.00;;;;;;5049776;28;20196;-76
2022/11/28 01:36:12;;;;;;;46.67;21.30;;;6.00;1.00;;;;;;5050016;28;20205;-75
2022/11/28 01:38:39;;;;;;;47.87;21.03;;;6.00;1.00;;;;;;5049964;28;20273;-75
2022/11/28 01:41:06;;;;;;;45.83;20.07;;;6.00;1.00;;;;;;5049860;28;20653;-75
2022/11/28 01:43:34;;;;;;;49.20;21.93;;;6.00;1.00;;;;;;5049777;28;20199;-75
2022/11/28 01:46:02;;;;;;;45.73;19.63;;;6.00;1.00;;;;;;5049497;28;20675;-75
2022/11/28 01:48:36;;;;;;;47.53;21.90;;;6.00;1.00;;;;;;5049736;28;20193;-77
2022/11/28 01:51:06;;;;;;;48.80;20.07;;;6.00;1.00;;;;;;5049826;28;20181;-75
2022/11/28 01:53:37;;;;;;;46.03;21.10;;;6.00;1.00;;;;;;5049575;28;20212;-77
2022/11/28 01:56:08;;;;;;;48.40;21.40;;;5.90;1.00;;;;;;5049782;28;20201;-75
2022/11/28 01:58:39;;;;;;;48.37;22.20;;;6.00;1.00;;;;;;5049420;28;20195;-75
2022/11/28 02:01:07;;;;;;;51.07;21.60;;;5.90;1.00;;;;;;5049375;28;20184;-75
2022/11/28 02:03:42;;;;;;;52.93;21.70;;;5.90;1.00;;;;;;5049614;28;20198;-75
2022/11/28 02:06:10;;;;;;;54.63;21.63;;;5.80;1.00;;;;;;5049161;28;20182;-76
2022/11/28 02:08:37;;;;;;;49.57;20.70;;;5.80;1.00;;;;;;5049248;28;20652;-76
2022/11/28 02:11:34;;;;;;;51.57;21.07;;;5.80;1.00;;;;;;5049002;28;20199;-75
2022/11/28 02:14:13;;;;;;;49.87;21.63;;;5.70;1.00;;;;;;5049654;28;20191;-75
2022/11/28 02:16:57;;;;;;;48.10;21.33;;;5.70;1.00;;;;;;5048872;28;20183;-75
2022/11/28 02:19:58;;;;;;;49.57;21.03;;;5.60;1.00;;;;;;5049194;28;20190;-74
2022/11/28 02:22:30;;;;;;;51.93;22.67;;;5.50;1.00;;;;;;5052055;28;20731;-75
2022/11/28 02:25:23;;;;;;;49.57;22.00;;;5.40;1.00;;;;;;5055608;28;20194;-76
2022/11/28 02:28:33;;;;;;;53.90;22.63;;;5.30;1.00;;;;;;5055913;28;20673;-76
2022/11/28 02:31:17;;;;;;;56.67;24.70;;;5.20;99.90;;;;;;5060607;28;20209;-75
2022/11/28 02:33:48;;;;;;;57.50;25.07;;;5.20;99.90;;;;;;5055683;28;20204;-75
2022/11/28 02:36:19;;;;;;;61.60;26.30;;;5.20;99.90;;;;;;5055939;28;20187;-75
2022/11/28 02:38:57;;;;;;;67.77;27.43;;;5.20;99.90;;;;;;5055868;28;20209;-75
2022/11/28 02:41:31;;;;;;;67.97;28.00;;;5.10;99.90;;;;;;5055862;28;20186;-75
2022/11/28 02:44:08;;;;;;;69.50;27.27;;;5.00;99.90;;;;;;5055816;27;20265;-75
2022/11/28 02:46:44;;;;;;;80.67;30.10;;;5.00;99.90;;;;;;5055675;28;20414;-75
2022/11/28 02:49:18;;;;;;;71.53;28.07;;;4.90;99.90;;;;;;5055517;28;20246;-76
2022/11/28 02:51:50;;;;;;;71.67;28.83;;;4.80;1.00;;;;;;5055706;28;20185;-76
2022/11/28 02:54:20;;;;;;;79.10;31.07;;;4.80;1.00;;;;;;5055868;28;20190;-75
2022/11/28 02:56:48;;;;;;;81.93;29.67;;;4.80;1.00;;;;;;5055683;28;20557;-77
2022/11/28 02:59:44;;;;;;;77.83;31.10;;;4.80;1.00;;;;;;5055545;28;20228;-75
2022/11/28 03:02:14;;;;;;;83.03;33.00;;;4.80;1.00;;;;;;5055289;27;20264;-75
2022/11/28 03:04:47;;;;;;;68.30;29.07;;;4.80;1.00;;;;;;5055254;28;20598;-75
2022/11/28 03:07:26;;;;;;;76.63;30.93;;;4.80;1.00;;;;;;5055139;28;20201;-76
2022/11/28 03:10:03;;;;;;;80.40;31.67;;;4.80;1.00;;;;;;5055303;28;20180;-75
2022/11/28 03:12:40;;;;;;;72.60;29.87;;;4.70;1.00;;;;;;5055605;28;20186;-75
2022/11/28 03:15:09;;;;;;;81.37;31.80;;;4.70;1.00;;;;;;5055460;28;20180;-75
2022/11/28 03:17:44;;;;;;;82.47;32.67;;;4.60;1.00;;;;;;5035389;28;20656;-75
2022/11/28 03:20:20;;;;;;;78.37;30.73;;;4.60;1.00;;;;;;5035444;28;20185;-75
2022/11/28 03:23:00;;;;;;;67.87;29.77;;;4.50;1.00;;;;;;5057106;28;20215;-76
2022/11/28 03:25:33;;;;;;;66.43;28.50;;;4.50;1.00;;;;;;5052805;28;20220;-79
2022/11/28 03:28:09;;;;;;;68.40;29.90;;;4.50;1.00;;;;;;5052925;28;20222;-76
2022/11/28 03:30:43;;;;;;;75.80;30.20;;;4.40;1.00;;;;;;5052302;28;20185;-74
2022/11/28 03:33:14;;;;;;;76.33;29.70;;;4.40;1.00;;;;;;5058148;27;20172;-79
2022/11/28 03:35:49;;;;;;;68.80;28.63;;;4.30;1.00;;;;;;5031140;28;20224;-76
2022/11/28 03:38:20;;;;;;;63.97;28.70;;;4.30;1.00;;;;;;5031981;28;20182;-75
2022/11/28 03:40:52;;;;;;;55.23;25.20;;;4.20;1.00;;;;;;5037519;28;20676;-75
2022/11/28 03:43:22;;;;;;;51.87;24.53;;;4.20;1.00;;;;;;5051746;28;20201;-76
2022/11/28 03:45:54;;;;;;;60.77;26.50;;;4.10;1.00;;;;;;5051503;28;20177;-75
2022/11/28 03:48:27;;;;;;;55.13;25.37;;;4.10;1.00;;;;;;5051973;28;20204;-76
2022/11/28 03:51:00;;;;;;;52.30;23.07;;;4.10;1.00;;;;;;5051677;28;20185;-76
2022/11/28 03:53:35;;;;;;;54.07;25.50;;;4.00;1.00;;;;;;5051605;28;20180;-75
2022/11/28 03:56:07;;;;;;;52.10;26.00;;;3.90;1.00;;;;;;5051448;28;20187;-74
2022/11/28 03:58:40;;;;;;;53.67;26.17;;;3.90;1.00;;;;;;5051643;28;20623;-77
2022/11/28 04:01:14;;;;;;;48.73;24.43;;;3.80;1.00;;;;;;5051080;28;20245;-75
2022/11/28 04:03:51;;;;;;;49.90;24.77;;;3.80;1.00;;;;;;5051530;28;20172;-75
2022/11/28 04:06:25;;;;;;;49.47;24.97;;;3.70;99.90;;;;;;5051534;28;20256;-75
2022/11/28 04:08:59;;;;;;;51.43;24.77;;;3.60;99.90;;;;;;5051409;28;20662;-75
2022/11/28 04:11:33;;;;;;;46.73;22.77;;;3.60;99.90;;;;;;5050965;28;20237;-76
2022/11/28 04:14:08;;;;;;;50.77;24.30;;;3.60;99.90;;;;;;5051339;28;20181;-76
2022/11/28 04:16:39;;;;;;;52.80;25.37;;;3.50;99.90;;;;;;5051355;28;20180;-74
2022/11/28 04:19:12;;;;;;;49.20;24.73;;;3.50;99.90;;;;;;5051209;28;20184;-77
2022/11/28 04:21:46;;;;;;;51.30;25.53;;;3.40;99.90;;;;;;5049234;28;20181;-76
2022/11/28 04:24:18;;;;;;;48.77;23.97;;;3.40;1.00;;;;;;5042579;28;20518;-76
2022/11/28 04:26:48;;;;;;;55.93;25.83;;;3.40;1.00;;;;;;5050247;28;20212;-75
2022/11/28 04:29:21;;;;;;;47.07;23.17;;;3.40;99.90;;;;;;5050606;28;20638;-75
2022/11/28 04:31:54;;;;;;;48.43;24.40;;;3.30;99.90;;;;;;5054284;28;20166;-79
2022/11/28 04:34:23;;;;;;;50.63;24.53;;;3.30;99.90;;;;;;5056643;28;20241;-74
2022/11/28 04:36:54;;;;;;;50.90;25.97;;;3.20;99.90;;;;;;5051226;28;20197;-75
2022/11/28 04:39:25;;;;;;;54.67;26.57;;;3.20;99.90;;;;;;5051114;28;20193;-74
2022/11/28 04:41:55;;;;;;;49.17;23.70;;;3.20;99.90;;;;;;5050331;28;20177;-74
2022/11/28 04:44:27;;;;;;;51.17;25.03;;;3.10;99.90;;;;;;5050926;28;20184;-76
2022/11/28 04:46:57;;;;;;;47.40;25.37;;;3.10;99.90;;;;;;5049975;28;20181;-75
2022/11/28 04:49:26;;;;;;;49.10;25.73;;;3.10;99.90;;;;;;5050966;28;20688;-74
2022/11/28 04:52:02;;;;;;;53.43;26.93;;;3.00;99.90;;;;;;5050970;28;20197;-75
2022/11/28 04:54:36;;;;;;;49.27;25.33;;;3.00;99.90;;;;;;5050533;28;20180;-76
2022/11/28 04:57:12;;;;;;;51.53;24.73;;;3.00;99.90;;;;;;5050678;28;20233;-75
2022/11/28 04:59:41;;;;;;;49.77;25.20;;;2.90;99.90;;;;;;5050812;28;20216;-76
2022/11/28 05:02:09;;;;;;;52.23;26.90;;;2.90;99.90;;;;;;5049435;28;20189;-75
2022/11/28 05:04:37;;;;;;;51.47;26.00;;;2.90;99.90;;;;;;5050178;28;20201;-75
2022/11/28 05:07:08;;;;;;;51.17;26.43;;;2.90;99.90;;;;;;5050291;28;20227;-74
2022/11/28 05:09:35;;;;;;;50.70;26.07;;;2.80;99.90;;;;;;5050090;28;20181;-75
2022/11/28 05:12:02;;;;;;;52.47;28.20;;;2.80;99.90;;;;;;5050087;28;20193;-74
2022/11/28 05:14:29;;;;;;;52.00;27.87;;;2.80;99.90;;;;;;5050351;28;20218;-75
2022/11/28 05:16:56;;;;;;;46.53;23.33;;;2.80;99.90;;;;;;5050295;28;20201;-74
2022/11/28 05:19:24;;;;;;;56.10;28.60;;;2.70;99.90;;;;;;5050291;28;20241;-74
2022/11/28 05:21:52;;;;;;;54.33;28.17;;;2.70;99.90;;;;;;5050082;28;20223;-73
2022/11/28 05:24:21;;;;;;;50.67;26.60;;;2.70;99.90;;;;;;5049714;28;20259;-75
2022/11/28 05:26:48;;;;;;;54.13;28.70;;;2.70;99.90;;;;;;5049575;28;20700;-74
2022/11/28 05:29:15;;;;;;;52.60;27.90;;;2.70;99.90;;;;;;5049842;28;20278;-74
2022/11/28 05:31:42;;;;;;;51.63;27.43;;;2.60;99.90;;;;;;5049913;28;20200;-74
2022/11/28 05:34:09;;;;;;;53.40;27.57;;;2.60;99.90;;;;;;5049938;28;20651;-73
2022/11/28 05:36:36;;;;;;;49.97;27.10;;;2.60;1.00;;;;;;5049981;28;20201;-74
2022/11/28 05:39:03;;;;;;;54.33;26.97;;;2.50;1.00;;;;;;5049923;28;20703;-74
2022/11/28 05:41:32;;;;;;;51.97;26.23;;;2.50;1.00;;;;;;5049645;28;20203;-73
2022/11/28 05:44:00;;;;;;;52.37;26.47;;;2.50;1.00;;;;;;5051198;27;20203;-74
2022/11/28 05:46:28;;;;;;;49.33;26.20;;;2.50;1.00;;;;;;5048653;28;20199;-75
2022/11/28 05:48:55;;;;;;;49.77;26.80;;;2.40;1.00;;;;;;5048438;28;20574;-76
2022/11/28 05:51:23;;;;;;;45.63;24.13;;;2.40;1.00;;;;;;5048350;28;20260;-76
2022/11/28 05:53:50;;;;;;;48.73;25.20;;;2.40;1.00;;;;;;5048433;28;20553;-74
2022/11/28 05:56:21;;;;;;;44.23;23.37;;;2.40;1.00;;;;;;5047987;28;20346;-75
2022/11/28 05:58:50;;;;;;;44.23;23.83;;;2.40;1.00;;;;;;5048101;28;20254;-74
2022/11/28 06:01:20;;;;;;;43.50;23.93;;;2.30;1.00;;;;;;5040823;28;20197;-75
2022/11/28 06:03:47;;;;;;;43.33;23.13;;;2.30;1.00;;;;;;5047743;28;20278;-76
2022/11/28 06:06:16;;;;;;;41.73;22.53;;;2.30;1.00;;;;;;5048805;28;20200;-75
2022/11/28 06:08:43;;;;;;;39.43;21.10;;;2.30;99.90;;;;;;5049430;28;20219;-75
2022/11/28 06:11:13;;;;;;;41.50;21.93;;;2.30;99.90;;;;;;5048857;28;20194;-75
2022/11/28 06:13:40;;;;;;;39.33;21.40;;;2.20;99.90;;;;;;5048569;28;20202;-75
2022/11/28 06:16:11;;;;;;;40.67;22.00;;;2.20;8.50;;;;;;5048997;28;20275;-75
2022/11/28 06:18:38;;;;;;;38.00;21.77;;;2.20;1.00;;;;;;5049361;28;20187;-75
2022/11/28 06:21:07;;;;;;;30.03;15.93;;;2.20;1.00;;;;;;5049309;28;20222;-76
2022/11/28 06:23:34;;;;;;;39.50;20.53;;;2.10;1.00;;;;;;5049198;28;20253;-75
2022/11/28 06:26:05;;;;;;;31.63;17.03;;;2.10;1.00;;;;;;5049029;28;20232;-75
2022/11/28 06:28:32;;;;;;;36.77;18.97;;;2.00;1.00;;;;;;5049044;28;20207;-75
2022/11/28 06:31:00;;;;;;;34.83;19.47;;;2.10;1.00;;;;;;5048969;28;20731;-75
2022/11/28 06:33:28;;;;;;;39.03;20.60;;;2.10;1.00;;;;;;5048933;28;20241;-75
2022/11/28 06:35:59;;;;;;;37.53;19.53;;;2.10;1.00;;;;;;5049066;28;20196;-76
2022/11/28 06:38:27;;;;;;;38.07;18.70;;;2.10;1.00;;;;;;5049123;28;20216;-75
2022/11/28 06:40:57;;;;;;;39.17;20.77;;;2.00;1.00;;;;;;5048721;28;20779;-75
2022/11/28 06:43:24;;;;;;;32.57;19.00;;;2.00;1.00;;;;;;5048695;28;20650;-75
2022/11/28 06:45:51;;;;;;;37.60;18.13;;;2.10;99.90;;;;;;5048703;28;20661;-75
2022/11/28 06:48:19;;;;;;;39.20;19.80;;;2.10;99.90;;;;;;5048812;28;20226;-75
2022/11/28 06:50:48;;;;;;;39.13;19.93;;;2.10;99.90;;;;;;5048671;28;20207;-76
2022/11/28 06:53:15;;;;;;;36.93;19.10;;;2.10;99.90;;;;;;5048930;28;20222;-75
2022/11/28 06:55:42;;;;;;;36.57;19.80;;;2.10;99.90;;;;;;5048400;28;20202;-75
2022/11/28 06:58:09;;;;;;;37.63;19.50;;;2.10;75.30;;;;;;5048780;28;20200;-76
2022/11/28 07:00:37;;;;;;;35.73;19.20;;;2.20;7.70;;;;;;5048713;28;20204;-77
2022/11/28 07:03:04;;;;;;;35.60;19.10;;;2.20;1.00;;;;;;5048886;28;20200;-74
2022/11/28 07:05:31;;;;;;;34.80;18.70;;;2.20;1.00;;;;;;5048557;28;20192;-75
2022/11/28 07:08:00;;;;;;;35.43;19.53;;;2.30;1.00;;;;;;5048269;28;20247;-75
2022/11/28 07:10:28;;;;;;;38.50;20.47;;;2.30;1.00;;;;;;5050897;28;20207;-76
2022/11/28 07:12:56;;;;;;;37.17;19.97;;;2.30;1.00;;;;;;5051797;28;20534;-75
2022/11/28 07:15:24;;;;;;;35.73;20.40;;;2.30;99.90;;;;;;5052106;28;20203;-76
2022/11/28 07:17:51;;;;;;;33.43;17.90;;;2.30;99.90;;;;;;5051979;28;20195;-75
2022/11/28 07:20:18;;;;;;;30.17;16.20;;;2.30;99.90;;;;;;5051702;28;20204;-75
2022/11/28 07:22:47;;;;;;;36.47;20.20;;;2.30;99.90;;;;;;5051668;28;20194;-75
2022/11/28 07:25:15;;;;;;;38.20;19.53;;;2.30;99.90;;;;;;5051768;28;20286;-75
2022/11/28 07:27:42;;;;;;;34.63;18.73;;;2.30;99.90;;;;;;5051463;28;20376;-74
2022/11/28 07:30:10;;;;;;;31.23;17.60;;;2.30;91.30;;;;;;5052024;28;20223;-75
2022/11/28 07:32:40;;;;;;;35.13;19.77;;;2.30;94.50;;;;;;5051887;28;20218;-75
2022/11/28 07:35:08;;;;;;;33.17;18.60;;;2.40;26.20;;;;;;5051937;28;20221;-76
2022/11/28 07:37:36;;;;;;;35.60;18.10;;;2.40;12.70;;;;;;5051921;28;20646;-74
2022/11/28 07:40:03;;;;;;;33.17;19.60;;;2.40;22.80;;;;;;5051657;28;20228;-76
2022/11/28 07:42:31;;;;;;;31.07;18.70;;;2.40;1.00;;;;;;5051467;28;20715;-75
2022/11/28 07:44:58;;;;;;;31.50;17.50;;;2.40;1.00;;;;;;5051371;28;20726;-75
2022/11/28 07:47:25;;;;;;;33.27;17.70;;;2.40;1.00;;;;;;5051631;28;20196;-76
2022/11/28 07:49:53;;;;;;;27.67;16.47;;;2.50;1.00;;;;;;5051429;28;20629;-76
2022/11/28 07:52:20;;;;;;;32.63;18.37;;;2.50;1.00;;;;;;5051159;28;20204;-75
2022/11/28 07:54:49;;;;;;;31.10;17.50;;;2.60;1.00;;;;;;5051143;28;20662;-75
2022/11/28 07:57:16;;;;;;;30.27;16.87;;;2.60;1.00;;;;;;5055137;28;20740;-75
2022/11/28 07:59:44;;;;;;;32.40;18.03;;;2.60;1.00;;;;;;5051421;28;20234;-75
2022/11/28 08:02:12;;;;;;;32.10;17.23;;;2.70;1.00;;;;;;5051415;28;20197;-74
2022/11/28 08:04:39;;;;;;;31.63;17.30;;;2.70;1.00;;;;;;5051565;28;20255;-74
2022/11/28 08:07:06;;;;;;;29.33;16.67;;;2.80;1.00;;;;;;5051570;28;20528;-73
2022/11/28 08:09:33;;;;;;;26.63;15.37;;;2.80;1.00;;;;;;5051404;28;20220;-74
2022/11/28 08:12:00;;;;;;;27.97;17.10;;;2.90;1.00;;;;;;5054215;28;20199;-77
2022/11/28 08:14:27;;;;;;;28.73;15.47;;;2.90;99.90;;;;;;5051129;28;20193;-78
2022/11/28 08:16:56;;;;;;;25.33;14.67;;;3.00;99.90;;;;;;5051183;28;20207;-75
2022/11/28 08:19:23;;;;;;;27.20;16.07;;;3.10;99.90;;;;;;5051042;28;20189;-74
2022/11/28 08:21:50;;;;;;;22.73;13.93;;;3.10;99.90;;;;;;5050751;28;20252;-76
2022/11/28 08:24:17;;;;;;;24.70;14.77;;;3.30;99.90;;;;;;5052289;28;20193;-76
2022/11/28 08:26:44;;;;;;;25.60;14.23;;;3.30;99.90;;;;;;5050566;28;20300;-77
2022/11/28 08:29:11;;;;;;;24.63;14.30;;;3.40;92.80;;;;;;5051073;28;20216;-76
2022/11/28 08:31:40;;;;;;;26.93;13.57;;;3.40;1.00;;;;;;5051049;28;20197;-75
2022/11/28 08:34:11;;;;;;;26.80;14.93;;;3.50;1.00;;;;;;5050922;28;20204;-76
2022/11/28 08:36:38;;;;;;;29.53;15.83;;;3.60;1.00;;;;;;5051118;28;20189;-75
2022/11/28 08:39:06;;;;;;;24.90;14.97;;;3.70;1.00;;;;;;5050724;28;20192;-76
2022/11/28 08:41:33;;;;;;;23.33;14.00;;;3.70;1.00;;;;;;5050763;28;20211;-76
2022/11/28 08:44:00;;;;;;;28.93;15.27;;;3.80;1.00;;;;;;5050338;28;20201;-76
2022/11/28 08:46:27;;;;;;;26.30;15.00;;;3.80;1.00;;;;;;5050643;28;20192;-75
2022/11/28 08:48:54;;;;;;;25.60;14.43;;;3.90;1.00;;;;;;5050704;28;20682;-76
2022/11/28 08:51:24;;;;;;;27.40;15.23;;;4.00;1.00;;;;;;5050697;28;20208;-75
2022/11/28 08:53:52;;;;;;;30.03;14.77;;;4.10;1.00;;;;;;5050411;28;20537;-76
2022/11/28 08:56:19;;;;;;;25.83;15.03;;;4.20;1.00;;;;;;5050543;28;20201;-76
2022/11/28 08:58:46;;;;;;;25.00;13.70;;;4.20;1.00;;;;;;5050117;28;20199;-78
2022/11/28 09:01:18;;;;;;;26.13;14.60;;;4.30;1.00;;;;;;5050319;28;20204;-76
2022/11/28 09:03:45;;;;;;;26.37;15.43;;;4.40;99.90;;;;;;5050415;28;20676;-76
2022/11/28 09:06:13;;;;;;;30.83;16.50;;;4.40;99.90;;;;;;5050542;28;20269;-76
2022/11/28 09:08:41;;;;;;;26.17;14.90;;;4.40;99.90;;;;;;5050237;28;20224;-76
2022/11/28 09:11:08;;;;;;;29.57;16.30;;;4.40;99.90;;;;;;5049927;28;20212;-76
2022/11/28 09:13:36;;;;;;;26.27;16.00;;;4.50;99.90;;;;;;5050257;28;20702;-75
2022/11/28 09:16:04;;;;;;;26.00;14.20;;;4.60;99.90;;;;;;5049960;28;20204;-76
2022/11/28 09:18:31;;;;;;;30.33;16.20;;;4.60;99.90;;;;;;5049823;28;20643;-75
2022/11/28 09:20:59;;;;;;;28.07;15.67;;;4.70;99.90;;;;;;5049940;28;20212;-75
2022/11/28 09:23:26;;;;;;;28.73;15.93;;;4.70;99.90;;;;;;5050044;28;20288;-75
2022/11/28 09:25:55;;;;;;;29.03;15.87;;;4.80;98.60;;;;;;5049791;28;20311;-76
2022/11/28 09:28:22;;;;;;;32.00;15.10;;;4.80;9.90;;;;;;5053355;28;20255;-74
2022/11/28 09:30:49;;;;;;;32.30;16.57;;;4.80;1.00;;;;;;5049922;28;20242;-75
2022/11/28 09:33:16;;;;;;;30.13;17.00;;;4.80;1.00;;;;;;5049297;28;20599;-74
2022/11/28 09:35:43;;;;;;;29.37;16.80;;;4.80;1.00;;;;;;5049795;28;20245;-73
2022/11/28 09:38:10;;;;;;;27.73;16.23;;;4.80;1.00;;;;;;5049877;28;20538;-75
2022/11/28 09:40:40;;;;;;;30.77;17.03;;;4.80;1.00;;;;;;5049798;28;20201;-74
2022/11/28 09:43:15;;;;;;;29.50;16.17;;;4.80;1.00;;;;;;5049749;28;20588;-74
2022/11/28 09:45:43;;;;;;;29.53;17.03;;;4.90;1.00;;;;;;5049783;28;20582;-75
2022/11/28 09:48:25;;;;;;;28.10;16.37;;;4.90;1.00;;;;;;5053202;28;20200;-76
2022/11/28 09:50:55;;;;;;;32.40;17.13;;;4.90;1.00;;;;;;5049541;28;20541;-75
2022/11/28 09:53:28;;;;;;;29.10;16.17;;;5.00;1.00;;;;;;5049432;28;20178;-75
2022/11/28 09:55:59;;;;;;;27.60;16.27;;;5.00;1.00;;;;;;5056659;28;20162;-75
2022/11/28 09:58:33;;;;;;;31.20;17.27;;;5.00;1.00;;;;;;5052790;28;20182;-74
2022/11/28 10:01:14;;;;;;;30.23;17.00;;;5.00;1.00;;;;;;5049568;28;20187;-74
2022/11/28 10:03:48;;;;;;;29.60;17.13;;;5.10;1.00;;;;;;5049594;28;20535;-75
2022/11/28 10:06:21;;;;;;;31.63;17.70;;;5.10;1.00;;;;;;5049457;28;20238;-75
2022/11/28 10:09:09;;;;;;;29.90;17.37;;;5.20;1.00;;;;;;5049598;28;20275;-74
2022/11/28 10:11:46;;;;;;;28.53;16.93;;;5.20;1.00;;;;;;5049516;28;20237;-75
2022/11/28 10:14:44;;;;;;;29.70;16.53;;;5.30;1.00;;;;;;5049448;28;20182;-75
2022/11/28 10:17:22;;;;;;;30.23;17.23;;;5.30;1.00;;;;;;5049324;28;20187;-76
2022/11/28 10:19:53;;;;;;;30.50;16.43;;;5.50;1.00;;;;;;5052961;28;20231;-76
2022/11/28 10:22:27;;;;;;;29.47;16.50;;;5.50;1.00;;;;;;5049395;28;20208;-76
2022/11/28 10:25:00;;;;;;;29.80;17.00;;;5.50;1.00;;;;;;5049093;28;20175;-74
2022/11/28 10:27:34;;;;;;;27.97;15.17;;;5.60;1.00;;;;;;5048930;28;20189;-75
2022/11/28 10:30:06;;;;;;;30.77;17.50;;;5.60;1.00;;;;;;5054847;28;20726;-76
2022/11/28 10:32:36;;;;;;;29.47;17.30;;;5.60;1.00;;;;;;5048911;28;20184;-75
2022/11/28 10:35:07;;;;;;;31.03;18.27;;;5.60;1.00;;;;;;5057203;28;20201;-76
2022/11/28 10:37:38;;;;;;;30.67;16.83;;;5.60;1.00;;;;;;5049234;28;20190;-76
2022/11/28 10:40:17;;;;;;;34.37;18.27;;;5.70;1.00;;;;;;5051874;28;20181;-74
2022/11/28 10:42:50;;;;;;;29.33;16.83;;;5.70;1.00;;;;;;5056787;28;20236;-76
2022/11/28 10:45:27;;;;;;;31.20;17.60;;;5.80;1.00;;;;;;5052993;28;20187;-76
2022/11/28 10:48:08;;;;;;;28.77;17.63;;;5.80;1.00;;;;;;5056017;28;20219;-76
2022/11/28 10:50:46;;;;;;;30.77;17.07;;;5.80;1.00;;;;;;5056104;28;20230;-75
2022/11/28 10:53:21;;;;;;;30.60;17.60;;;5.80;1.00;;;;;;5052239;28;20207;-78
2022/11/28 10:56:03;;;;;;;28.70;15.47;;;5.90;1.00;;;;;;5060163;28;20183;-76
2022/11/28 10:58:36;;;;;;;30.20;18.00;;;5.90;1.00;;;;;;5052264;28;20246;-76
2022/11/28 11:01:05;;;;;;;29.03;16.57;;;5.90;1.00;;;;;;5056315;28;20189;-77
2022/11/28 11:03:35;;;;;;;30.13;16.07;;;6.00;1.00;;;;;;5052265;28;20246;-75
2022/11/28 11:06:02;;;;;;;31.27;17.13;;;5.90;1.00;;;;;;5055619;28;20188;-74
2022/11/28 11:08:34;;;;;;;28.40;17.07;;;6.00;1.00;;;;;;5052163;28;20197;-75
2022/11/28 11:11:05;;;;;;;26.03;14.50;;;6.10;1.00;;;;;;5052226;28;20231;-74
2022/11/28 11:13:33;;;;;;;27.63;17.40;;;6.10;1.00;;;;;;5052122;28;20186;-74
2022/11/28 11:16:05;;;;;;;25.77;15.80;;;6.10;1.00;;;;;;5052052;28;20255;-74
2022/11/28 11:18:35;;;;;;;29.97;16.23;;;6.00;1.00;;;;;;5052091;28;20186;-74
2022/11/28 11:21:14;;;;;;;27.17;16.73;;;6.00;1.00;;;;;;5051953;28;20234;-76
2022/11/28 11:23:42;;;;;;;27.53;16.17;;;6.00;1.00;;;;;;5051572;28;20245;-74
2022/11/28 11:26:22;;;;;;;29.80;16.43;;;6.00;1.00;;;;;;5055485;28;20318;-75
2022/11/28 11:28:51;;;;;;;29.47;15.70;;;6.00;1.00;;;;;;5051585;28;20551;-75
2022/11/28 11:31:27;;;;;;;26.57;16.40;;;6.00;1.00;;;;;;5051442;28;20191;-75
2022/11/28 11:34:03;;;;;;;29.70;16.37;;;6.00;1.00;;;;;;5052002;28;20256;-77
2022/11/28 11:36:33;;;;;;;27.50;16.63;;;5.90;1.00;;;;;;5051432;28;20619;-76
2022/11/28 11:39:21;;;;;;;29.00;16.57;;;5.90;1.00;;;;;;5051967;28;20297;-75
2022/11/28 11:41:50;;;;;;;29.63;16.90;;;5.80;1.00;;;;;;5051884;28;20252;-78
2022/11/28 11:44:35;;;;;;;29.03;15.73;;;5.80;1.00;;;;;;5051332;28;20203;-76
2022/11/28 11:47:05;;;;;;;28.43;15.93;;;5.70;1.00;;;;;;5051342;28;20616;-76
2022/11/28 11:49:34;;;;;;;28.07;16.30;;;5.70;1.00;;;;;;5051445;28;20746;-76
2022/11/28 11:52:03;;;;;;;29.97;16.70;;;5.70;1.00;;;;;;5055514;28;20221;-75
2022/11/28 11:54:31;;;;;;;27.73;16.33;;;5.60;1.00;;;;;;5051013;28;20198;-75
2022/11/28 11:56:59;;;;;;;34.87;17.63;;;5.60;1.00;;;;;;5051029;28;20209;-74
2022/11/28 11:59:31;;;;;;;33.60;19.07;;;5.50;1.00;;;;;;5055640;28;20224;-75
2022/11/28 12:02:02;;;;;;;27.47;16.60;;;5.50;1.00;;;;;;5051163;28;20274;-76
2022/11/28 12:04:35;;;;;;;28.67;16.43;;;5.40;1.00;;;;;;5051407;28;20184;-77
2022/11/28 12:07:06;;;;;;;27.13;14.90;;;5.30;1.00;;;;;;5050982;28;20191;-75
2022/11/28 12:09:40;;;;;;;33.30;17.77;;;5.30;1.00;;;;;;5051252;27;20282;-75
2022/11/28 12:12:14;;;;;;;27.40;18.00;;;5.30;1.00;;;;;;5057248;28;20240;-76
2022/11/28 12:14:41;;;;;;;33.13;18.73;;;5.30;1.00;;;;;;5050900;28;20181;-76
2022/11/28 12:17:32;;;;;;;28.93;17.27;;;5.20;1.00;;;;;;5050819;28;20204;-74
2022/11/28 12:20:20;;;;;;;24.73;15.47;;;5.20;1.00;;;;;;5051165;28;20511;-75
2022/11/28 12:22:59;;;;;;;30.27;17.47;;;5.30;1.00;;;;;;5051084;28;20235;-75
2022/11/28 12:25:34;;;;;;;33.27;18.27;;;5.30;1.00;;;;;;5051398;27;20229;-75
2022/11/28 12:28:13;;;;;;;31.07;19.17;;;5.30;41.90;;;;;;5050421;28;20198;-74
2022/11/28 12:30:55;;;;;;;31.43;18.90;;;5.30;24.20;;;;;;5050797;28;20215;-76
2022/11/28 12:33:35;;;;;;;30.03;18.00;;;5.30;24.50;;;;;;5050934;28;20186;-75
2022/11/28 12:36:12;;;;;;;33.80;19.23;;;5.30;20.60;;;;;;5050841;28;20571;-75
2022/11/28 12:39:00;;;;;;;31.20;18.73;;;5.30;27.60;;;;;;5050810;28;20189;-75
2022/11/28 12:41:50;;;;;;;33.90;18.77;;;5.30;79.20;;;;;;5050691;28;20222;-75
2022/11/28 12:44:27;;;;;;;34.87;20.37;;;5.30;65.20;;;;;;5050465;28;20229;-77
2022/11/28 12:47:04;;;;;;;36.07;19.50;;;5.20;1.00;;;;;;5050464;28;20193;-75
2022/11/28 12:49:41;;;;;;;34.37;20.33;;;5.20;22.20;;;;;;5050709;28;20253;-75
2022/11/28 12:52:22;;;;;;;34.30;19.20;;;5.20;34.80;;;;;;5050613;28;20189;-75
2022/11/28 12:55:05;;;;;;;32.37;19.50;;;5.10;72.90;;;;;;5050600;28;20183;-75
2022/11/28 12:57:39;;;;;;;34.43;19.63;;;5.10;92.40;;;;;;5050558;28;20181;-75
2022/11/28 13:00:14;;;;;;;35.47;20.60;;;5.10;97.20;;;;;;5050592;28;20182;-74
2022/11/28 13:02:56;;;;;;;35.10;20.37;;;5.00;99.90;;;;;;5050465;28;20190;-74
2022/11/28 13:05:46;;;;;;;33.70;19.30;;;4.90;99.90;;;;;;5050441;28;20178;-76